Time;durP1;ratioP1;P1;durP2;ratioP2;P2;SDS_P1;SDS_P2;PMS_P1;PMS_P2;Temp;Humidity;BMP_temperature;BMP_pressure;BME280_temperature;BME280_humidity;BME280_pressure;Samples;Min_cycle;Max_cycle;Signal;HPM_P1;HPM_P2
2022/12/16 00:01:23;;;;;;;2.42;1.70;;;;;;;8.46;49.07;102197.94;5024377;28;20140;-74
2022/12/16 00:03:53;;;;;;;4.18;1.50;;;;;;;8.36;49.41;102195.53;5027649;28;20124;-74
2022/12/16 00:06:23;;;;;;;2.05;1.20;;;;;;;8.32;49.77;102193.59;5021061;28;20073;-73
2022/12/16 00:08:52;;;;;;;2.47;1.23;;;;;;;8.26;50.83;102198.38;5026191;28;20416;-74
2022/12/16 00:11:22;;;;;;;2.83;1.30;;;;;;;8.18;50.62;102205.63;5025671;28;20049;-74
2022/12/16 00:13:51;;;;;;;2.22;1.52;;;;;;;8.12;50.42;102205.25;5024954;28;20076;-74
2022/12/16 00:16:20;;;;;;;2.08;1.20;;;;;;;8.08;50.49;102216.16;5027435;28;20415;-76
2022/12/16 00:18:49;;;;;;;2.15;1.25;;;;;;;8.03;50.92;102214.97;5028220;28;20064;-74
2022/12/16 00:21:19;;;;;;;2.92;1.42;;;;;;;7.99;51.53;102213.88;5028598;28;20527;-72
2022/12/16 00:23:47;;;;;;;2.97;1.25;;;;;;;7.94;50.92;102213.59;5025813;28;20453;-73
2022/12/16 00:26:16;;;;;;;2.55;1.33;;;;;;;7.88;51.43;102214.88;5025947;28;20310;-73
2022/12/16 00:28:46;;;;;;;2.60;1.63;;;;;;;7.84;52.44;102229.28;5026795;28;20140;-74
2022/12/16 00:31:15;;;;;;;2.67;1.33;;;;;;;7.76;51.91;102223.63;5027305;28;20054;-74
2022/12/16 00:33:44;;;;;;;2.75;1.60;;;;;;;7.73;52.95;102227.69;5027348;28;20049;-72
2022/12/16 00:36:13;;;;;;;2.20;1.10;;;;;;;7.66;53.15;102228.97;5025366;28;20427;-72
2022/12/16 00:38:42;;;;;;;2.90;1.75;;;;;;;7.63;52.55;102231.34;5028016;28;20460;-72
2022/12/16 00:41:10;;;;;;;2.72;1.10;;;;;;;7.59;54.01;102234.53;5024458;28;20050;-73
2022/12/16 00:43:39;;;;;;;2.63;1.55;;;;;;;7.55;53.95;102233.41;5026097;28;20749;-74
2022/12/16 00:46:09;;;;;;;3.25;1.58;;;;;;;7.51;54.08;102234.03;5026590;28;20132;-74
2022/12/16 00:48:38;;;;;;;2.53;1.63;;;;;;;7.46;54.74;102232.81;5024825;28;20514;-74
2022/12/16 00:51:07;;;;;;;3.30;1.80;;;;;;;7.42;55.78;102232.50;5025511;28;20423;-75
2022/12/16 00:53:37;;;;;;;3.53;1.83;;;;;;;7.36;56.63;102234.69;5027017;28;20419;-74
2022/12/16 00:56:08;;;;;;;4.53;1.92;;;;;;;7.30;57.43;102241.19;5026129;28;20092;-74
2022/12/16 00:58:37;;;;;;;3.53;2.28;;;;;;;7.25;56.94;102240.00;5026775;28;20049;-75
2022/12/16 01:01:06;;;;;;;2.42;1.70;;;;;;;7.20;57.86;102236.25;5029492;28;20049;-74
2022/12/16 01:03:37;;;;;;;3.25;2.00;;;;;;;7.16;57.58;102241.09;5024099;28;20049;-74
2022/12/16 01:06:10;;;;;;;6.53;2.03;;;;;;;7.10;57.71;102238.97;5026666;28;20053;-73
2022/12/16 01:08:38;;;;;;;;;;;;;;;7.06;58.73;102232.75;5025813;28;20439;-73
2022/12/16 01:11:07;;;;;;;4.30;1.92;;;;;;;7.04;58.30;102230.88;5024324;28;19979;-73
2022/12/16 01:13:35;;;;;;;4.95;1.85;;;;;;;6.93;59.01;102207.84;5024858;28;20037;-72
2022/12/16 01:16:04;;;;;;;4.00;2.03;;;;;;;6.99;58.58;102224.53;5022539;28;20050;-73
2022/12/16 01:18:33;;;;;;;2.45;1.90;;;;;;;6.95;59.38;102222.53;5020820;28;20471;-77
2022/12/16 01:21:07;;;;;;;4.78;2.03;;;;;;;6.91;58.82;102222.28;5026711;28;20126;-80
2022/12/16 01:23:43;;;;;;;4.63;1.85;;;;;;;6.88;59.47;102211.81;5024633;28;20045;-76
2022/12/16 01:26:17;;;;;;;2.75;1.80;;;;;;;6.85;59.13;102215.84;5023542;28;20507;-76
2022/12/16 01:28:48;;;;;;;4.15;2.17;;;;;;;6.83;60.34;102212.31;5025989;28;20051;-81
2022/12/16 01:31:18;;;;;;;2.65;1.80;;;;;;;6.81;59.67;102216.44;5011118;28;20080;-77
2022/12/16 01:33:47;;;;;;;3.13;1.67;;;;;;;6.79;59.86;102207.72;5007663;28;20515;-80
2022/12/16 01:36:18;;;;;;;3.92;1.75;;;;;;;6.78;59.88;102218.78;5003950;28;20378;-78
2022/12/16 01:38:47;;;;;;;3.97;1.70;;;;;;;6.76;60.34;102221.28;5005894;28;20381;-79
2022/12/16 01:41:17;;;;;;;2.90;1.95;;;;;;;6.74;60.52;102219.41;5003424;28;20046;-77
2022/12/16 01:43:47;;;;;;;3.15;1.80;;;;;;;6.71;61.26;102225.19;5005117;28;20055;-78
2022/12/16 01:46:21;;;;;;;2.97;1.55;;;;;;;6.69;60.08;102225.09;5005426;28;20049;-77
2022/12/16 01:48:54;;;;;;;2.83;1.33;;;;;;;6.68;59.37;102222.41;5006313;28;20140;-78
2022/12/16 01:51:29;;;;;;;2.75;1.20;;;;;;;6.70;59.40;102226.00;5004628;28;20491;-77
2022/12/16 01:54:01;;;;;;;5.35;2.17;;;;;;;6.70;58.84;102228.56;5001764;28;20049;-77
2022/12/16 01:56:33;;;;;;;1.80;0.98;;;;;;;6.69;59.45;102219.06;5002755;28;20408;-79
2022/12/16 01:59:02;;;;;;;;;;;;;;;6.72;57.58;102225.31;5003456;28;20419;-80
2022/12/16 02:01:31;;;;;;;2.92;1.23;;;;;;;6.75;57.44;102236.59;5000257;28;19941;-80
2022/12/16 02:04:02;;;;;;;2.65;1.63;;;;;;;6.75;59.07;102231.44;5002252;28;20413;-77
2022/12/16 02:06:33;;;;;;;2.60;1.88;;;;;;;6.75;58.63;102237.47;5004474;28;20407;-79
2022/12/16 02:09:06;;;;;;;4.95;1.50;;;;;;;6.74;58.40;102238.28;5005369;28;20061;-78
2022/12/16 02:12:04;;;;;;;4.32;1.52;;;;;;;6.71;60.32;102248.34;5005692;28;20494;-80
2022/12/16 02:14:51;;;;;;;4.85;1.80;;;;;;;6.68;60.77;102245.56;5005191;28;20451;-78
2022/12/16 02:17:25;;;;;;;4.20;1.90;;;;;;;6.63;61.09;102247.81;5007624;28;20453;-80
2022/12/16 02:20:18;;;;;;;2.58;1.67;;;;;;;6.61;62.30;102256.22;5006144;28;20394;-79
2022/12/16 02:23:04;;;;;;;2.63;1.73;;;;;;;6.53;62.19;102253.13;4998473;28;20085;-78
2022/12/16 02:26:07;;;;;;;3.55;1.55;;;;;;;6.50;62.81;102269.25;5003243;28;20037;-77
2022/12/16 02:28:56;;;;;;;4.28;1.83;;;;;;;6.45;62.52;102272.25;4998213;28;20054;-78
2022/12/16 02:31:33;;;;;;;5.63;2.08;;;;;;;6.40;63.11;102271.94;5019140;28;20140;-79
2022/12/16 02:34:14;;;;;;;3.70;2.17;;;;;;;6.35;63.30;102275.88;5020372;28;20092;-77
2022/12/16 02:36:58;;;;;;;4.47;2.20;;;;;;;6.31;63.69;102278.09;5027811;28;20069;-80
2022/12/16 02:39:35;;;;;;;2.38;1.90;;;;;;;6.26;63.82;102282.91;5018872;28;20049;-76
2022/12/16 02:42:10;;;;;;;3.88;2.20;;;;;;;6.19;64.01;102278.13;5029934;28;20553;-78
2022/12/16 02:44:50;;;;;;;4.95;2.10;;;;;;;6.12;64.42;102281.06;5019289;28;20056;-79
2022/12/16 02:47:20;;;;;;;5.47;2.55;;;;;;;6.02;64.33;102272.66;5027856;28;20491;-77
2022/12/16 02:49:53;;;;;;;6.15;2.38;;;;;;;5.99;64.58;102281.81;5023394;28;20061;-76
2022/12/16 02:52:25;;;;;;;5.00;2.38;;;;;;;5.97;64.86;102280.81;5022951;28;20526;-76
2022/12/16 02:54:57;;;;;;;4.75;2.08;;;;;;;5.91;64.78;102277.75;5024656;28;20061;-77
2022/12/16 02:57:53;;;;;;;3.83;1.90;;;;;;;5.83;64.38;102279.78;5023507;28;20132;-76
2022/12/16 03:00:24;;;;;;;6.15;2.05;;;;;;;5.76;63.32;102274.97;5022938;28;20293;-79
2022/12/16 03:03:00;;;;;;;4.65;1.80;;;;;;;5.72;62.44;102271.28;5022182;28;20539;-77
2022/12/16 03:05:33;;;;;;;4.05;2.53;;;;;;;5.71;62.06;102273.75;5025128;28;20054;-76
2022/12/16 03:08:06;;;;;;;4.95;2.50;;;;;;;5.70;60.17;102289.94;5028139;28;20536;-81
2022/12/16 03:10:40;;;;;;;2.30;1.70;;;;;;;5.70;59.06;102282.22;5028119;28;20053;-78
2022/12/16 03:13:11;;;;;;;2.40;1.10;;;;;;;5.68;58.70;102287.28;5027900;28;20486;-77
2022/12/16 03:15:42;;;;;;;4.78;1.67;;;;;;;5.67;58.87;102288.03;5028043;28;20553;-76
2022/12/16 03:18:14;;;;;;;1.77;1.10;;;;;;;5.64;57.41;102287.81;5030058;28;20075;-73
2022/12/16 03:20:48;;;;;;;2.95;1.40;;;;;;;5.63;56.70;102299.75;5029868;28;20479;-77
2022/12/16 03:23:21;;;;;;;1.13;0.80;;;;;;;5.61;56.43;102295.28;5027110;28;20053;-79
2022/12/16 03:25:55;;;;;;;2.55;1.17;;;;;;;5.58;54.65;102293.38;5024108;28;20045;-78
2022/12/16 03:28:35;;;;;;;1.55;1.10;;;;;;;5.60;53.83;102296.97;5028318;28;20057;-75
2022/12/16 03:31:10;;;;;;;2.20;0.80;;;;;;;5.61;53.87;102291.06;5025265;28;20053;-74
2022/12/16 03:33:46;;;;;;;1.85;1.10;;;;;;;5.63;52.77;102296.28;5026852;28;20049;-75
2022/12/16 03:36:21;;;;;;;1.23;0.80;;;;;;;5.64;52.31;102304.13;5026577;28;20498;-75
2022/12/16 03:38:52;;;;;;;2.40;1.02;;;;;;;5.64;52.07;102298.97;5025835;28;20049;-74
2022/12/16 03:41:24;;;;;;;1.17;0.80;;;;;;;5.66;51.47;102304.25;5028556;28;20130;-74
2022/12/16 03:43:53;;;;;;;2.00;1.05;;;;;;;5.68;52.22;102307.81;5024602;28;20569;-75
2022/12/16 03:46:22;;;;;;;2.15;1.20;;;;;;;5.65;52.29;102295.63;5024213;28;20050;-72
2022/12/16 03:48:53;;;;;;;1.77;0.90;;;;;;;5.65;52.12;102298.19;5026047;28;20041;-75
2022/12/16 03:51:21;;;;;;;1.92;0.75;;;;;;;5.65;52.46;102294.72;5027264;28;20053;-74
2022/12/16 03:53:50;;;;;;;2.05;1.15;;;;;;;5.65;51.98;102300.75;5025455;28;20133;-75
2022/12/16 03:56:19;;;;;;;2.90;1.02;;;;;;;5.63;52.80;102302.31;5020360;28;20049;-75
2022/12/16 03:58:48;;;;;;;2.10;1.60;;;;;;;5.59;53.14;102296.84;5031585;28;20042;-74
2022/12/16 04:01:16;;;;;;;3.33;1.05;;;;;;;5.54;53.03;102303.31;5025010;28;20080;-75
2022/12/16 04:03:45;;;;;;;2.72;1.10;;;;;;;5.49;52.82;102308.09;5025581;28;20045;-74
2022/12/16 04:06:17;;;;;;;2.78;1.27;;;;;;;5.44;52.61;102296.59;5028874;28;20049;-73
2022/12/16 04:08:46;;;;;;;2.60;1.08;;;;;;;5.42;52.31;102311.00;5028714;28;20050;-73
2022/12/16 04:25:14;;;;;;;2.05;1.15;;;;;;;5.25;52.17;102313.19;5025816;28;20076;-73
2022/12/16 04:27:45;;;;;;;1.83;1.15;;;;;;;5.25;52.06;102312.28;5025213;28;20041;-75
2022/12/16 04:30:21;;;;;;;1.58;1.10;;;;;;;5.24;51.86;102315.63;5025020;28;20053;-75
